sensor_id;sensor_type;location;lat;lon;timestamp;pressure;altitude;pressure_sealevel;temperature;humidity
9721;BME280;4899;42.644;23.366;2023-03-01T00:01:17;94724.56;;;6.33;100.00
9721;BME280;4899;42.644;23.366;2023-03-01T00:03:43;94731.22;;;6.34;100.00
9721;BME280;4899;42.644;23.366;2023-03-01T00:06:09;94719.50;;;6.28;100.00
9721;BME280;4899;42.644;23.366;2023-03-01T00:08:35;94726.38;;;6.33;100.00
9721;BME280;4899;42.644;23.366;2023-03-01T00:13:34;94705.00;;;6.24;100.00
9721;BME280;4899;42.644;23.366;2023-03-01T00:16:02;94719.00;;;6.26;100.00
9721;BME280;4899;42.644;23.366;2023-03-01T00:18:28;94708.56;;;6.23;100.00
9721;BME280;4899;42.644;23.366;2023-03-01T00:20:55;94713.16;;;6.26;100.00
9721;BME280;4899;42.644;23.366;2023-03-01T00:23:21;94703.72;;;6.21;100.00
9721;BME280;4899;42.644;23.366;2023-03-01T00:25:47;94642.66;;;5.85;100.00
9721;BME280;4899;42.644;23.366;2023-03-01T00:28:12;94698.63;;;6.21;100.00
9721;BME280;4899;42.644;23.366;2023-03-01T00:30:38;94688.16;;;6.17;100.00
9721;BME280;4899;42.644;23.366;2023-03-01T00:33:03;94689.44;;;6.15;100.00
9721;BME280;4899;42.644;23.366;2023-03-01T00:35:29;94681.06;;;6.09;100.00
9721;BME280;4899;42.644;23.366;2023-03-01T00:37:56;94690.75;;;6.12;100.00
9721;BME280;4899;42.644;23.366;2023-03-01T00:40:30;94685.41;;;6.09;100.00
9721;BME280;4899;42.644;23.366;2023-03-01T00:42:55;94673.94;;;6.06;100.00
9721;BME280;4899;42.644;23.366;2023-03-01T00:45:21;94672.19;;;6.02;100.00
9721;BME280;4899;42.644;23.366;2023-03-01T00:47:48;94677.31;;;6.02;100.00
9721;BME280;4899;42.644;23.366;2023-03-01T00:50:14;94683.41;;;6.06;100.00
9721;BME280;4899;42.644;23.366;2023-03-01T00:52:39;94680.13;;;6.00;100.00
9721;BME280;4899;42.644;23.366;2023-03-01T00:55:06;94663.06;;;5.96;100.00
9721;BME280;4899;42.644;23.366;2023-03-01T00:57:31;94676.81;;;6.00;100.00
9721;BME280;4899;42.644;23.366;2023-03-01T00:59:57;94663.81;;;5.96;100.00
9721;BME280;4899;42.644;23.366;2023-03-01T01:02:22;94668.66;;;5.93;100.00
9721;BME280;4899;42.644;23.366;2023-03-01T01:04:48;94677.34;;;5.92;100.00
9721;BME280;4899;42.644;23.366;2023-03-01T01:07:14;94671.22;;;5.87;100.00
9721;BME280;4899;42.644;23.366;2023-03-01T01:09:41;94670.25;;;5.83;100.00
9721;BME280;4899;42.644;23.366;2023-03-01T01:12:06;94670.25;;;5.83;100.00
9721;BME280;4899;42.644;23.366;2023-03-01T01:14:32;94665.66;;;5.80;100.00
9721;BME280;4899;42.644;23.366;2023-03-01T01:16:58;94659.03;;;5.79;100.00
9721;BME280;4899;42.644;23.366;2023-03-01T01:19:24;94665.63;;;5.85;100.00
9721;BME280;4899;42.644;23.366;2023-03-01T01:21:50;94670.72;;;5.85;100.00
9721;BME280;4899;42.644;23.366;2023-03-01T01:24:17;94666.97;;;5.78;100.00
9721;BME280;4899;42.644;23.366;2023-03-01T01:26:43;94665.94;;;5.79;100.00
9721;BME280;4899;42.644;23.366;2023-03-01T01:29:09;94663.41;;;5.74;100.00
9721;BME280;4899;42.644;23.366;2023-03-01T01:31:36;94673.09;;;5.77;100.00
9721;BME280;4899;42.644;23.366;2023-03-01T01:34:03;94656.53;;;5.69;100.00
9721;BME280;4899;42.644;23.366;2023-03-01T01:36:30;94677.94;;;5.78;100.00
9721;BME280;4899;42.644;23.366;2023-03-01T01:38:56;94668.78;;;5.72;100.00
9721;BME280;4899;42.644;23.366;2023-03-01T01:41:22;94676.41;;;5.77;100.00
9721;BME280;4899;42.644;23.366;2023-03-01T01:46:39;94688.94;;;5.74;100.00
9721;BME280;4899;42.644;23.366;2023-03-01T01:49:32;94689.69;;;5.74;100.00
9721;BME280;4899;42.644;23.366;2023-03-01T01:52:01;94666.25;;;5.72;100.00
9721;BME280;4899;42.644;23.366;2023-03-01T01:54:56;94676.94;;;5.74;100.00
9721;BME280;4899;42.644;23.366;2023-03-01T01:57:23;94668.75;;;5.77;100.00
9721;BME280;4899;42.644;23.366;2023-03-01T01:59:58;94669.78;;;5.76;100.00
9721;BME280;4899;42.644;23.366;2023-03-01T02:02:24;94670.31;;;5.73;100.00
9721;BME280;4899;42.644;23.366;2023-03-01T02:04:55;94663.69;;;5.72;100.00
9721;BME280;4899;42.644;23.366;2023-03-01T02:07:24;94658.06;;;5.75;100.00
9721;BME280;4899;42.644;23.366;2023-03-01T02:09:51;94656.25;;;5.76;100.00
9721;BME280;4899;42.644;23.366;2023-03-01T02:12:20;94646.31;;;5.69;100.00
9721;BME280;4899;42.644;23.366;2023-03-01T02:14:47;94646.09;;;5.71;100.00
9721;BME280;4899;42.644;23.366;2023-03-01T02:17:15;94657.28;;;5.75;100.00
9721;BME280;4899;42.644;23.366;2023-03-01T02:22:22;94648.88;;;5.69;100.00
9721;BME280;4899;42.644;23.366;2023-03-01T02:27:18;94663.38;;;5.79;100.00
9721;BME280;4899;42.644;23.366;2023-03-01T02:29:47;94655.75;;;5.74;100.00
9721;BME280;4899;42.644;23.366;2023-03-01T02:32:13;94641.53;;;5.63;100.00
9721;BME280;4899;42.644;23.366;2023-03-01T02:34:40;94655.28;;;5.67;100.00
9721;BME280;4899;42.644;23.366;2023-03-01T02:37:13;94664.72;;;5.71;100.00
9721;BME280;4899;42.644;23.366;2023-03-01T02:39:42;94679.75;;;5.73;100.00
9721;BME280;4899;42.644;23.366;2023-03-01T02:42:15;94672.59;;;5.75;100.00
9721;BME280;4899;42.644;23.366;2023-03-01T02:44:42;94624.53;;;5.43;100.00
9721;BME280;4899;42.644;23.366;2023-03-01T02:47:07;94659.34;;;5.73;100.00
9721;BME280;4899;42.644;23.366;2023-03-01T02:49:35;94673.09;;;5.77;100.00
9721;BME280;4899;42.644;23.366;2023-03-01T02:54:52;94665.75;;;5.70;100.00
9721;BME280;4899;42.644;23.366;2023-03-01T02:57:21;94665.00;;;5.65;100.00
9721;BME280;4899;42.644;23.366;2023-03-01T02:59:48;94664.19;;;5.69;100.00
9721;BME280;4899;42.644;23.366;2023-03-01T03:02:26;94664.53;;;5.57;100.00
9721;BME280;4899;42.644;23.366;2023-03-01T03:07:28;94652.78;;;5.56;100.00
9721;BME280;4899;42.644;23.366;2023-03-01T03:09:54;94666.78;;;5.64;100.00
9721;BME280;4899;42.644;23.366;2023-03-01T03:12:19;94664.22;;;5.64;100.00
9721;BME280;4899;42.644;23.366;2023-03-01T03:14:45;94663.19;;;5.65;100.00
9721;BME280;4899;42.644;23.366;2023-03-01T03:17:10;94667.81;;;5.63;100.00
9721;BME280;4899;42.644;23.366;2023-03-01T03:19:35;94670.88;;;5.60;100.00
9721;BME280;4899;42.644;23.366;2023-03-01T03:22:01;94647.22;;;5.49;100.00
9721;BME280;4899;42.644;23.366;2023-03-01T03:24:26;94671.66;;;5.61;100.00
9721;BME280;4899;42.644;23.366;2023-03-01T03:27:03;94670.16;;;5.54;100.00
9721;BME280;4899;42.644;23.366;2023-03-01T03:29:29;94668.63;;;5.53;100.00
9721;BME280;4899;42.644;23.366;2023-03-01T03:31:54;94667.88;;;5.53;100.00
9721;BME280;4899;42.644;23.366;2023-03-01T03:34:20;94679.31;;;5.61;100.00
9721;BME280;4899;42.644;23.366;2023-03-01T03:36:45;94668.84;;;5.62;100.00
9721;BME280;4899;42.644;23.366;2023-03-01T03:39:10;94664.78;;;5.56;100.00
9721;BME280;4899;42.644;23.366;2023-03-01T03:41:36;94672.69;;;5.60;100.00
9721;BME280;4899;42.644;23.366;2023-03-01T03:44:01;94674.22;;;5.55;100.00
9721;BME280;4899;42.644;23.366;2023-03-01T03:46:27;94668.88;;;5.57;100.00
9721;BME280;4899;42.644;23.366;2023-03-01T03:48:52;94683.66;;;5.60;100.00
9721;BME280;4899;42.644;23.366;2023-03-01T03:51:18;94670.38;;;5.58;100.00
9721;BME280;4899;42.644;23.366;2023-03-01T03:53:45;94680.59;;;5.58;100.00
9721;BME280;4899;42.644;23.366;2023-03-01T03:56:11;94682.09;;;5.64;100.00
9721;BME280;4899;42.644;23.366;2023-03-01T03:58:37;94667.31;;;5.61;100.00
9721;BME280;4899;42.644;23.366;2023-03-01T04:01:03;94679.28;;;5.66;100.00
9721;BME280;4899;42.644;23.366;2023-03-01T04:03:29;94674.16;;;5.66;100.00
9721;BME280;4899;42.644;23.366;2023-03-01T04:05:58;94670.88;;;5.60;100.00
9721;BME280;4899;42.644;23.366;2023-03-01T04:08:24;94676.22;;;5.64;100.00
9721;BME280;4899;42.644;23.366;2023-03-01T04:10:51;94673.16;;;5.62;100.00
9721;BME280;4899;42.644;23.366;2023-03-01T04:13:19;94681.56;;;5.67;100.00
9721;BME280;4899;42.644;23.366;2023-03-01T04:15:48;94682.63;;;5.61;100.00
9721;BME280;4899;42.644;23.366;2023-03-01T04:18:16;94683.59;;;5.65;100.00
9721;BME280;4899;42.644;23.366;2023-03-01T04:20:43;94684.59;;;5.69;100.00
9721;BME280;4899;42.644;23.366;2023-03-01T04:25:56;94682.56;;;5.71;100.00
9721;BME280;4899;42.644;23.366;2023-03-01T04:28:25;94677.22;;;5.68;100.00
9721;BME280;4899;42.644;23.366;2023-03-01T04:30:52;94689.72;;;5.69;100.00
9721;BME280;4899;42.644;23.366;2023-03-01T04:33:18;94691.25;;;5.70;100.00
9721;BME280;4899;42.644;23.366;2023-03-01T04:35:44;94685.09;;;5.76;100.00
9721;BME280;4899;42.644;23.366;2023-03-01T04:38:10;94691.19;;;5.80;100.00
9721;BME280;4899;42.644;23.366;2023-03-01T04:40:36;94683.31;;;5.77;100.00
9721;BME280;4899;42.644;23.366;2023-03-01T04:43:03;94673.38;;;5.75;100.00
9721;BME280;4899;42.644;23.366;2023-03-01T04:45:29;94688.41;;;5.77;100.00
9721;BME280;4899;42.644;23.366;2023-03-01T04:47:55;94690.69;;;5.78;100.00
9721;BME280;4899;42.644;23.366;2023-03-01T04:50:23;94683.56;;;5.75;100.00
9721;BME280;4899;42.644;23.366;2023-03-01T04:52:49;94685.09;;;5.76;100.00
9721;BME280;4899;42.644;23.366;2023-03-01T04:55:15;94668.78;;;5.72;100.00
9721;BME280;4899;42.644;23.366;2023-03-01T04:57:41;94673.41;;;5.70;100.00
9721;BME280;4899;42.644;23.366;2023-03-01T05:00:09;94677.97;;;5.68;100.00
9721;BME280;4899;42.644;23.366;2023-03-01T05:02:55;94666.53;;;5.61;100.00
9721;BME280;4899;42.644;23.366;2023-03-01T05:05:35;94685.63;;;5.73;100.00
9721;BME280;4899;42.644;23.366;2023-03-01T05:08:06;94671.13;;;5.64;100.00
9721;BME280;4899;42.644;23.366;2023-03-01T05:10:34;94688.94;;;5.74;100.00
9721;BME280;4899;42.644;23.366;2023-03-01T05:13:01;94679.50;;;5.74;100.00
9721;BME280;4899;42.644;23.366;2023-03-01T05:15:29;94677.22;;;5.68;100.00
9721;BME280;4899;42.644;23.366;2023-03-01T05:17:57;94683.56;;;5.75;100.00
9721;BME280;4899;42.644;23.366;2023-03-01T05:20:25;94684.34;;;5.76;100.00
9721;BME280;4899;42.644;23.366;2023-03-01T05:22:51;94681.78;;;5.76;100.00
9721;BME280;4899;42.644;23.366;2023-03-01T05:25:19;94670.53;;;5.77;100.00
9721;BME280;4899;42.644;23.366;2023-03-01T05:27:46;94682.00;;;5.79;100.00
9721;BME280;4899;42.644;23.366;2023-03-01T05:30:12;94674.34;;;5.79;100.00
9721;BME280;4899;42.644;23.366;2023-03-01T05:32:45;94691.16;;;5.85;100.00
9721;BME280;4899;42.644;23.366;2023-03-01T05:35:12;94682.97;;;5.88;100.00
9721;BME280;4899;42.644;23.366;2023-03-01T05:37:48;94679.16;;;5.91;100.00
9721;BME280;4899;42.644;23.366;2023-03-01T05:40:23;94688.59;;;5.91;100.00
9721;BME280;4899;42.644;23.366;2023-03-01T05:42:56;94687.81;;;5.95;100.00
9721;BME280;4899;42.644;23.366;2023-03-01T05:45:24;94688.06;;;5.99;100.00
9721;BME280;4899;42.644;23.366;2023-03-01T05:47:50;94684.47;;;6.00;100.00
9721;BME280;4899;42.644;23.366;2023-03-01T05:50:22;94689.50;;;6.10;100.00
9721;BME280;4899;42.644;23.366;2023-03-01T05:52:51;94651.34;;;5.84;100.00
9721;BME280;4899;42.644;23.366;2023-03-01T05:55:18;94695.59;;;6.14;100.00
9721;BME280;4899;42.644;23.366;2023-03-01T05:57:44;94698.38;;;6.17;100.00
9721;BME280;4899;42.644;23.366;2023-03-01T06:00:11;94703.16;;;6.29;100.00
9721;BME280;4899;42.644;23.366;2023-03-01T06:02:37;94702.13;;;6.30;100.00
9721;BME280;4899;42.644;23.366;2023-03-01T06:05:04;94700.09;;;6.27;100.00
9721;BME280;4899;42.644;23.366;2023-03-01T06:07:31;94700.09;;;6.27;100.00
9721;BME280;4899;42.644;23.366;2023-03-01T06:09:56;94714.59;;;6.37;100.00
9721;BME280;4899;42.644;23.366;2023-03-01T06:12:22;94714.59;;;6.37;100.00
9721;BME280;4899;42.644;23.366;2023-03-01T06:14:47;94712.56;;;6.34;100.00
9721;BME280;4899;42.644;23.366;2023-03-01T06:17:13;94708.75;;;6.31;100.00
9721;BME280;4899;42.644;23.366;2023-03-01T06:19:38;94708.75;;;6.31;100.00
9721;BME280;4899;42.644;23.366;2023-03-01T06:22:04;94719.19;;;6.35;100.00
9721;BME280;4899;42.644;23.366;2023-03-01T06:24:29;94718.94;;;6.36;100.00
9721;BME280;4899;42.644;23.366;2023-03-01T06:26:55;94723.22;;;6.41;100.00
9721;BME280;4899;42.644;23.366;2023-03-01T06:29:22;94728.31;;;6.46;100.00
9721;BME280;4899;42.644;23.366;2023-03-01T06:31:48;94722.41;;;6.51;100.00
9721;BME280;4899;42.644;23.366;2023-03-01T06:34:14;94723.13;;;6.56;100.00
9721;BME280;4899;42.644;23.366;2023-03-01T06:36:40;94720.28;;;6.58;100.00
9721;BME280;4899;42.644;23.366;2023-03-01T06:39:06;94724.06;;;6.65;100.00
9721;BME280;4899;42.644;23.366;2023-03-01T06:41:32;94732.41;;;6.76;100.00
9721;BME280;4899;42.644;23.366;2023-03-01T06:43:59;94729.09;;;6.75;100.00
9721;BME280;4899;42.644;23.366;2023-03-01T06:46:25;94721.72;;;6.69;100.00
9721;BME280;4899;42.644;23.366;2023-03-01T06:48:51;94724.03;;;6.70;100.00
9721;BME280;4899;42.644;23.366;2023-03-01T06:51:16;94727.56;;;6.74;100.00
9721;BME280;4899;42.644;23.366;2023-03-01T06:53:42;94730.84;;;6.80;100.00
9721;BME280;4899;42.644;23.366;2023-03-01T06:56:07;94718.09;;;6.75;100.00
9721;BME280;4899;42.644;23.366;2023-03-01T06:58:32;94727.16;;;6.91;100.00
9721;BME280;4899;42.644;23.366;2023-03-01T07:00:58;94728.66;;;6.92;100.00
9721;BME280;4899;42.644;23.366;2023-03-01T07:03:24;94724.19;;;6.79;100.00
9721;BME280;4899;42.644;23.366;2023-03-01T07:05:50;94732.31;;;6.86;100.00
9721;BME280;4899;42.644;23.366;2023-03-01T07:08:18;94722.91;;;6.82;100.00
9721;BME280;4899;42.644;23.366;2023-03-01T07:10:44;94722.84;;;6.87;100.00
9721;BME280;4899;42.644;23.366;2023-03-01T07:13:09;94716.75;;;6.83;100.00
9721;BME280;4899;42.644;23.366;2023-03-01T07:15:35;94710.56;;;6.89;100.00
9721;BME280;4899;42.644;23.366;2023-03-01T07:18:00;94721.25;;;6.96;100.00
9721;BME280;4899;42.644;23.366;2023-03-01T07:20:25;94721.88;;;7.06;100.00
9721;BME280;4899;42.644;23.366;2023-03-01T07:22:52;94717.69;;;7.16;100.00
9721;BME280;4899;42.644;23.366;2023-03-01T07:25:17;94727.28;;;7.29;100.00
9721;BME280;4899;42.644;23.366;2023-03-01T07:27:43;94724.31;;;7.40;100.00
9721;BME280;4899;42.644;23.366;2023-03-01T07:30:09;94713.28;;;7.45;100.00
9721;BME280;4899;42.644;23.366;2023-03-01T07:32:34;94711.22;;;7.47;100.00
9721;BME280;4899;42.644;23.366;2023-03-01T07:35:00;94701.00;;;7.42;100.00
9721;BME280;4899;42.644;23.366;2023-03-01T07:37:26;94705.53;;;7.50;100.00
9721;BME280;4899;42.644;23.366;2023-03-01T07:39:51;94709.78;;;7.60;100.00
9721;BME280;4899;42.644;23.366;2023-03-01T07:42:17;94716.03;;;7.72;100.00
9721;BME280;4899;42.644;23.366;2023-03-01T07:44:42;94716.91;;;7.82;100.00
9721;BME280;4899;42.644;23.366;2023-03-01T07:47:08;94723.38;;;7.98;100.00
9721;BME280;4899;42.644;23.366;2023-03-01T07:49:34;94719.69;;;8.04;100.00
9721;BME280;4899;42.644;23.366;2023-03-01T07:51:59;94711.38;;;8.12;100.00
9721;BME280;4899;42.644;23.366;2023-03-01T07:54:25;94705.16;;;8.18;100.00
9721;BME280;4899;42.644;23.366;2023-03-01T07:56:51;94707.06;;;8.26;100.00
9721;BME280;4899;42.644;23.366;2023-03-01T07:59:17;94696.13;;;8.21;100.00
9721;BME280;4899;42.644;23.366;2023-03-01T08:01:42;94715.84;;;8.39;100.00
9721;BME280;4899;42.644;23.366;2023-03-01T08:04:08;94706.16;;;8.36;100.00
9721;BME280;4899;42.644;23.366;2023-03-01T08:06:35;94707.41;;;8.39;100.00
9721;BME280;4899;42.644;23.366;2023-03-01T08:09:00;94698.19;;;8.38;100.00
9721;BME280;4899;42.644;23.366;2023-03-01T08:11:26;94700.16;;;8.46;100.00
9721;BME280;4899;42.644;23.366;2023-03-01T08:13:53;94692.94;;;8.48;100.00
9721;BME280;4899;42.644;23.366;2023-03-01T08:16:19;94705.84;;;8.43;100.00
9721;BME280;4899;42.644;23.366;2023-03-01T08:18:44;94710.78;;;8.53;100.00
9721;BME280;4899;42.644;23.366;2023-03-01T08:21:15;94707.84;;;8.59;100.00
9721;BME280;4899;42.644;23.366;2023-03-01T08:23:42;94699.78;;;8.66;100.00
9721;BME280;4899;42.644;23.366;2023-03-01T08:26:19;94704.38;;;8.69;100.00
9721;BME280;4899;42.644;23.366;2023-03-01T08:28:46;94699.78;;;8.66;100.00
9721;BME280;4899;42.644;23.366;2023-03-01T08:33:40;94711.63;;;8.94;100.00
9721;BME280;4899;42.644;23.366;2023-03-01T08:36:06;94696.25;;;8.94;100.00
9721;BME280;4899;42.644;23.366;2023-03-01T08:38:33;94693.97;;;9.07;100.00
9721;BME280;4899;42.644;23.366;2023-03-01T08:41:01;94702.91;;;9.23;100.00
9721;BME280;4899;42.644;23.366;2023-03-01T08:43:26;94702.69;;;9.33;100.00
9721;BME280;4899;42.644;23.366;2023-03-01T08:45:52;94691.50;;;9.29;100.00
9721;BME280;4899;42.644;23.366;2023-03-01T08:48:17;94704.41;;;9.51;100.00
9721;BME280;4899;42.644;23.366;2023-03-01T08:50:43;94695.47;;;9.49;100.00
9721;BME280;4899;42.644;23.366;2023-03-01T08:53:08;94700.22;;;9.55;100.00
9721;BME280;4899;42.644;23.366;2023-03-01T08:55:34;94692.03;;;9.67;100.00
9721;BME280;4899;42.644;23.366;2023-03-01T08:57:59;94702.13;;;10.00;100.00
9721;BME280;4899;42.644;23.366;2023-03-01T09:00:24;94704.91;;;10.12;100.00
9721;BME280;4899;42.644;23.366;2023-03-01T09:02:52;94708.06;;;10.23;100.00
9721;BME280;4899;42.644;23.366;2023-03-01T09:05:17;94691.69;;;10.18;100.00
9721;BME280;4899;42.644;23.366;2023-03-01T09:07:43;94700.44;;;10.17;100.00
9721;BME280;4899;42.644;23.366;2023-03-01T09:10:09;94698.06;;;10.21;100.00
9721;BME280;4899;42.644;23.366;2023-03-01T09:12:35;94699.03;;;10.11;100.00
9721;BME280;4899;42.644;23.366;2023-03-01T09:15:00;94707.66;;;10.15;100.00
9721;BME280;4899;42.644;23.366;2023-03-01T09:17:25;94706.56;;;10.22;100.00
9721;BME280;4899;42.644;23.366;2023-03-01T09:19:51;94696.38;;;10.39;100.00
9721;BME280;4899;42.644;23.366;2023-03-01T09:22:16;94703.56;;;10.51;100.00
9721;BME280;4899;42.644;23.366;2023-03-01T09:24:42;94691.75;;;10.50;100.00
9721;BME280;4899;42.644;23.366;2023-03-01T09:27:08;94695.03;;;10.41;100.00
9721;BME280;4899;42.644;23.366;2023-03-01T09:29:37;94690.66;;;10.42;100.00
9721;BME280;4899;42.644;23.366;2023-03-01T09:32:03;94684.16;;;10.44;100.00
9721;BME280;4899;42.644;23.366;2023-03-01T09:34:28;94687.50;;;10.45;100.00
9721;BME280;4899;42.644;23.366;2023-03-01T09:36:54;94680.13;;;10.52;100.00
9721;BME280;4899;42.644;23.366;2023-03-01T09:39:20;94687.97;;;10.25;100.00
9721;BME280;4899;42.644;23.366;2023-03-01T09:41:59;94690.56;;;10.11;100.00
9721;BME280;4899;42.644;23.366;2023-03-01T09:47:25;94687.38;;;10.28;100.00
9721;BME280;4899;42.644;23.366;2023-03-01T09:53:06;94682.00;;;10.38;100.00
9721;BME280;4899;42.644;23.366;2023-03-01T09:55:39;94682.56;;;10.35;100.00
9721;BME280;4899;42.644;23.366;2023-03-01T09:58:37;94677.44;;;10.35;100.00
9721;BME280;4899;42.644;23.366;2023-03-01T10:01:30;94676.16;;;10.46;100.00
9721;BME280;4899;42.644;23.366;2023-03-01T10:06:26;94664.97;;;10.51;100.00
9721;BME280;4899;42.644;23.366;2023-03-01T10:09:02;94661.72;;;10.36;100.00
9721;BME280;4899;42.644;23.366;2023-03-01T10:11:33;94662.31;;;10.33;100.00
9721;BME280;4899;42.644;23.366;2023-03-01T10:14:09;94670.00;;;10.33;100.00
9721;BME280;4899;42.644;23.366;2023-03-01T10:16:48;94657.00;;;10.30;100.00
9721;BME280;4899;42.644;23.366;2023-03-01T10:19:28;94661.63;;;10.41;100.00
9721;BME280;4899;42.644;23.366;2023-03-01T10:21:58;94650.56;;;10.41;100.00
9721;BME280;4899;42.644;23.366;2023-03-01T10:24:32;94648.28;;;10.17;100.00
9721;BME280;4899;42.644;23.366;2023-03-01T10:27:05;94651.09;;;10.29;100.00
9721;BME280;4899;42.644;23.366;2023-03-01T10:32:29;94649.44;;;10.64;100.00
9721;BME280;4899;42.644;23.366;2023-03-01T10:34:54;94624.78;;;10.63;100.00
9721;BME280;4899;42.644;23.366;2023-03-01T10:37:21;94649.44;;;10.64;100.00
9721;BME280;4899;42.644;23.366;2023-03-01T10:40:05;94644.06;;;10.74;100.00
9721;BME280;4899;42.644;23.366;2023-03-01T10:42:47;94633.91;;;10.69;100.00
9721;BME280;4899;42.644;23.366;2023-03-01T10:48:24;94629.81;;;10.68;100.00
9721;BME280;4899;42.644;23.366;2023-03-01T10:58:34;94622.25;;;11.20;100.00
9721;BME280;4899;42.644;23.366;2023-03-01T11:01:03;94625.59;;;11.29;100.00
9721;BME280;4899;42.644;23.366;2023-03-01T11:06:03;94626.69;;;11.63;100.00
9721;BME280;4899;42.644;23.366;2023-03-01T11:08:44;94617.00;;;11.43;100.00
9721;BME280;4899;42.644;23.366;2023-03-01T11:11:18;94629.13;;;11.59;100.00
9721;BME280;4899;42.644;23.366;2023-03-01T11:13:56;94637.00;;;11.63;100.00
9721;BME280;4899;42.644;23.366;2023-03-01T11:16:40;94628.06;;;11.69;99.48
9721;BME280;4899;42.644;23.366;2023-03-01T11:21:37;94621.53;;;11.46;100.00
9721;BME280;4899;42.644;23.366;2023-03-01T11:24:08;94626.38;;;11.38;100.00
9721;BME280;4899;42.644;23.366;2023-03-01T11:26:39;94623.16;;;11.24;100.00
9721;BME280;4899;42.644;23.366;2023-03-01T11:29:13;94620.44;;;11.21;100.00
9721;BME280;4899;42.644;23.366;2023-03-01T11:31:41;94625.84;;;11.02;100.00
9721;BME280;4899;42.644;23.366;2023-03-01T11:40:19;94612.44;;;10.83;100.00
9721;BME280;4899;42.644;23.366;2023-03-01T11:43:16;94621.97;;;10.73;100.00
9721;BME280;4899;42.644;23.366;2023-03-01T11:48:56;94605.94;;;10.85;100.00
9721;BME280;4899;42.644;23.366;2023-03-01T11:51:23;94601.38;;;10.73;100.00
9721;BME280;4899;42.644;23.366;2023-03-01T11:53:51;94588.97;;;10.75;100.00
9721;BME280;4899;42.644;23.366;2023-03-01T11:56:28;94598.22;;;10.76;100.00
9721;BME280;4899;42.644;23.366;2023-03-01T12:05:00;94597.06;;;11.00;100.00
9721;BME280;4899;42.644;23.366;2023-03-01T12:07:42;94594.13;;;11.50;100.00
9721;BME280;4899;42.644;23.366;2023-03-01T12:47:57;94570.06;;;12.36;93.33
9721;BME280;4899;42.644;23.366;2023-03-01T12:50:40;94568.16;;;12.15;90.09
9721;BME280;4899;42.644;23.366;2023-03-01T12:53:17;94559.03;;;12.26;89.88
9721;BME280;4899;42.644;23.366;2023-03-01T12:55:46;94564.63;;;12.28;93.53
9721;BME280;4899;42.644;23.366;2023-03-01T12:58:28;94566.44;;;12.28;91.92
9721;BME280;4899;42.644;23.366;2023-03-01T13:01:09;94567.97;;;12.29;89.99
9721;BME280;4899;42.644;23.366;2023-03-01T13:03:56;94560.88;;;12.17;90.37
9721;BME280;4899;42.644;23.366;2023-03-01T13:06:49;94567.56;;;12.10;87.92
9721;BME280;4899;42.644;23.366;2023-03-01T13:11:52;94565.31;;;11.82;96.51
9721;BME280;4899;42.644;23.366;2023-03-01T13:16:49;94580.47;;;11.58;97.30
9721;BME280;4899;42.644;23.366;2023-03-01T13:21:41;94566.84;;;11.49;99.18
9721;BME280;4899;42.644;23.366;2023-03-01T13:24:26;94566.69;;;11.54;97.59
9721;BME280;4899;42.644;23.366;2023-03-01T13:32:24;94562.44;;;11.32;100.00
9721;BME280;4899;42.644;23.366;2023-03-01T13:34:52;94561.81;;;11.35;100.00
9721;BME280;4899;42.644;23.366;2023-03-01T13:37:24;94554.72;;;11.40;100.00
9721;BME280;4899;42.644;23.366;2023-03-01T13:39:51;94566.66;;;11.28;100.00
9721;BME280;4899;42.644;23.366;2023-03-01T13:42:33;94563.34;;;11.19;100.00
9721;BME280;4899;42.644;23.366;2023-03-01T13:45:00;94555.59;;;11.10;100.00
9721;BME280;4899;42.644;23.366;2023-03-01T13:47:27;94548.16;;;11.08;100.00
9721;BME280;4899;42.644;23.366;2023-03-01T13:50:00;94559.81;;;11.06;100.00
9721;BME280;4899;42.644;23.366;2023-03-01T13:55:18;94552.69;;;10.94;100.00
9721;BME280;4899;42.644;23.366;2023-03-01T14:01:04;94553.63;;;11.07;100.00
9721;BME280;4899;42.644;23.366;2023-03-01T14:03:33;94541.38;;;11.30;100.00
9721;BME280;4899;42.644;23.366;2023-03-01T14:06:00;94560.19;;;11.48;100.00
9721;BME280;4899;42.644;23.366;2023-03-01T14:08:28;94556.53;;;11.49;100.00
9721;BME280;4899;42.644;23.366;2023-03-01T14:19:20;94556.03;;;11.12;100.00
9721;BME280;4899;42.644;23.366;2023-03-01T14:22:12;94546.66;;;11.07;100.00
9721;BME280;4899;42.644;23.366;2023-03-01T14:24:50;94545.44;;;10.96;100.00
9721;BME280;4899;42.644;23.366;2023-03-01T14:27:17;94544.94;;;10.86;100.00
9721;BME280;4899;42.644;23.366;2023-03-01T14:29:54;94552.50;;;10.73;100.00
9721;BME280;4899;42.644;23.366;2023-03-01T14:32:22;94538.25;;;10.67;100.00
9721;BME280;4899;42.644;23.366;2023-03-01T14:34:51;94548.66;;;10.54;100.00
9721;BME280;4899;42.644;23.366;2023-03-01T14:37:31;94543.78;;;10.43;100.00
9721;BME280;4899;42.644;23.366;2023-03-01T14:39:59;94549.03;;;10.38;100.00
9721;BME280;4899;42.644;23.366;2023-03-01T14:42:28;94542.19;;;10.25;100.00
9721;BME280;4899;42.644;23.366;2023-03-01T14:44:57;94551.72;;;10.25;100.00
9721;BME280;4899;42.644;23.366;2023-03-01T14:47:34;94539.78;;;10.06;100.00
9721;BME280;4899;42.644;23.366;2023-03-01T14:50:15;94547.28;;;10.16;100.00
9721;BME280;4899;42.644;23.366;2023-03-01T14:52:47;94549.25;;;10.20;100.00
9721;BME280;4899;42.644;23.366;2023-03-01T14:55:19;94538.75;;;10.07;100.00
9721;BME280;4899;42.644;23.366;2023-03-01T14:57:48;94546.72;;;9.97;100.00
9721;BME280;4899;42.644;23.366;2023-03-01T15:00:20;94535.81;;;9.92;100.00
9721;BME280;4899;42.644;23.366;2023-03-01T15:02:48;94542.03;;;9.77;100.00
9721;BME280;4899;42.644;23.366;2023-03-01T15:05:18;94523.66;;;9.61;100.00
9721;BME280;4899;42.644;23.366;2023-03-01T15:07:45;94539.66;;;9.58;100.00
9721;BME280;4899;42.644;23.366;2023-03-01T15:10:27;94527.56;;;9.36;100.00
9721;BME280;4899;42.644;23.366;2023-03-01T15:12:53;94516.78;;;9.12;100.00
9721;BME280;4899;42.644;23.366;2023-03-01T15:15:30;94523.09;;;8.92;100.00
9721;BME280;4899;42.644;23.366;2023-03-01T15:17:59;94526.75;;;8.77;100.00
9721;BME280;4899;42.644;23.366;2023-03-01T15:20:27;94529.59;;;8.62;100.00
9721;BME280;4899;42.644;23.366;2023-03-01T15:22:55;94519.56;;;8.52;100.00
9721;BME280;4899;42.644;23.366;2023-03-01T15:25:28;94516.81;;;8.48;100.00